sensor_id;sensor_type;location;lat;lon;timestamp;P1;durP1;ratioP1;P2;durP2;ratioP2
19675;SDS011;39539;52.202;9.876;2023-08-06T00:00:17;5.05;;;4.65;;
19675;SDS011;39539;52.202;9.876;2023-08-06T00:02:43;6.03;;;5.53;;
19675;SDS011;39539;52.202;9.876;2023-08-06T00:05:08;6.07;;;5.50;;
19675;SDS011;39539;52.202;9.876;2023-08-06T00:07:33;5.97;;;5.57;;
19675;SDS011;39539;52.202;9.876;2023-08-06T00:09:58;5.97;;;5.57;;
19675;SDS011;39539;52.202;9.876;2023-08-06T00:12:24;6.00;;;5.35;;
19675;SDS011;39539;52.202;9.876;2023-08-06T00:14:50;5.75;;;5.35;;
19675;SDS011;39539;52.202;9.876;2023-08-06T00:17:16;6.32;;;5.82;;
19675;SDS011;39539;52.202;9.876;2023-08-06T00:19:41;6.30;;;5.80;;
19675;SDS011;39539;52.202;9.876;2023-08-06T00:22:07;5.72;;;5.32;;
19675;SDS011;39539;52.202;9.876;2023-08-06T00:24:32;5.88;;;5.47;;
19675;SDS011;39539;52.202;9.876;2023-08-06T00:26:59;5.15;;;4.75;;
19675;SDS011;39539;52.202;9.876;2023-08-06T00:29:24;5.78;;;4.40;;
19675;SDS011;39539;52.202;9.876;2023-08-06T00:31:49;5.65;;;5.25;;
19675;SDS011;39539;52.202;9.876;2023-08-06T00:34:14;5.57;;;5.15;;
19675;SDS011;39539;52.202;9.876;2023-08-06T00:36:40;5.18;;;4.70;;
19675;SDS011;39539;52.202;9.876;2023-08-06T00:39:05;5.88;;;5.22;;
19675;SDS011;39539;52.202;9.876;2023-08-06T00:41:32;5.68;;;5.22;;
19675;SDS011;39539;52.202;9.876;2023-08-06T00:43:57;6.32;;;5.85;;
19675;SDS011;39539;52.202;9.876;2023-08-06T00:46:22;6.35;;;5.85;;
19675;SDS011;39539;52.202;9.876;2023-08-06T00:48:48;6.93;;;6.43;;
19675;SDS011;39539;52.202;9.876;2023-08-06T00:51:15;6.15;;;5.75;;
19675;SDS011;39539;52.202;9.876;2023-08-06T00:53:41;6.70;;;6.30;;
19675;SDS011;39539;52.202;9.876;2023-08-06T00:56:07;6.60;;;6.10;;
19675;SDS011;39539;52.202;9.876;2023-08-06T00:58:35;6.28;;;5.78;;
19675;SDS011;39539;52.202;9.876;2023-08-06T01:01:01;6.63;;;6.05;;
19675;SDS011;39539;52.202;9.876;2023-08-06T01:03:27;7.05;;;5.97;;
19675;SDS011;39539;52.202;9.876;2023-08-06T01:05:53;7.88;;;6.20;;
19675;SDS011;39539;52.202;9.876;2023-08-06T01:08:23;6.85;;;6.28;;
19675;SDS011;39539;52.202;9.876;2023-08-06T01:11:13;8.95;;;5.75;;
19675;SDS011;39539;52.202;9.876;2023-08-06T01:16:12;7.43;;;6.82;;
19675;SDS011;39539;52.202;9.876;2023-08-06T01:18:40;6.60;;;6.00;;
19675;SDS011;39539;52.202;9.876;2023-08-06T01:21:07;7.28;;;6.70;;
19675;SDS011;39539;52.202;9.876;2023-08-06T01:23:32;7.30;;;6.80;;
19675;SDS011;39539;52.202;9.876;2023-08-06T01:31:26;8.13;;;7.43;;
19675;SDS011;39539;52.202;9.876;2023-08-06T01:33:55;7.65;;;7.07;;
19675;SDS011;39539;52.202;9.876;2023-08-06T01:36:23;7.80;;;7.15;;
19675;SDS011;39539;52.202;9.876;2023-08-06T01:38:50;7.35;;;6.47;;
19675;SDS011;39539;52.202;9.876;2023-08-06T01:41:16;6.75;;;5.85;;
19675;SDS011;39539;52.202;9.876;2023-08-06T01:43:42;6.43;;;5.90;;
19675;SDS011;39539;52.202;9.876;2023-08-06T01:46:07;6.03;;;5.53;;
19675;SDS011;39539;52.202;9.876;2023-08-06T01:48:32;6.30;;;5.72;;
19675;SDS011;39539;52.202;9.876;2023-08-06T01:50:58;7.65;;;6.32;;
19675;SDS011;39539;52.202;9.876;2023-08-06T01:53:23;6.75;;;6.35;;
19675;SDS011;39539;52.202;9.876;2023-08-06T01:55:48;6.78;;;6.18;;
19675;SDS011;39539;52.202;9.876;2023-08-06T01:58:14;7.03;;;6.32;;
19675;SDS011;39539;52.202;9.876;2023-08-06T02:00:40;7.03;;;6.38;;
19675;SDS011;39539;52.202;9.876;2023-08-06T02:03:05;6.80;;;6.30;;
19675;SDS011;39539;52.202;9.876;2023-08-06T02:05:31;7.22;;;6.25;;
19675;SDS011;39539;52.202;9.876;2023-08-06T02:07:56;7.43;;;6.45;;
19675;SDS011;39539;52.202;9.876;2023-08-06T02:10:22;7.38;;;6.68;;
19675;SDS011;39539;52.202;9.876;2023-08-06T02:12:47;7.60;;;6.95;;
19675;SDS011;39539;52.202;9.876;2023-08-06T02:15:12;8.02;;;7.35;;
19675;SDS011;39539;52.202;9.876;2023-08-06T02:17:38;7.85;;;7.15;;
19675;SDS011;39539;52.202;9.876;2023-08-06T02:20:03;8.07;;;7.47;;
19675;SDS011;39539;52.202;9.876;2023-08-06T02:22:29;7.78;;;6.97;;
19675;SDS011;39539;52.202;9.876;2023-08-06T02:24:54;7.90;;;7.28;;
19675;SDS011;39539;52.202;9.876;2023-08-06T02:27:20;8.32;;;7.63;;
19675;SDS011;39539;52.202;9.876;2023-08-06T02:29:45;7.65;;;7.05;;
19675;SDS011;39539;52.202;9.876;2023-08-06T02:32:10;7.55;;;6.85;;
19675;SDS011;39539;52.202;9.876;2023-08-06T02:34:36;7.82;;;6.93;;
19675;SDS011;39539;52.202;9.876;2023-08-06T02:37:01;7.28;;;6.78;;
19675;SDS011;39539;52.202;9.876;2023-08-06T02:39:26;8.30;;;7.70;;
19675;SDS011;39539;52.202;9.876;2023-08-06T02:41:52;8.02;;;7.32;;
19675;SDS011;39539;52.202;9.876;2023-08-06T02:44:17;8.10;;;7.28;;
19675;SDS011;39539;52.202;9.876;2023-08-06T02:46:44;5.88;;;5.47;;
19675;SDS011;39539;52.202;9.876;2023-08-06T02:49:09;7.00;;;6.50;;
19675;SDS011;39539;52.202;9.876;2023-08-06T02:51:36;7.90;;;7.25;;
19675;SDS011;39539;52.202;9.876;2023-08-06T02:54:01;12.48;;;7.30;;
19675;SDS011;39539;52.202;9.876;2023-08-06T02:56:27;9.15;;;7.40;;
19675;SDS011;39539;52.202;9.876;2023-08-06T02:58:52;7.45;;;6.85;;
19675;SDS011;39539;52.202;9.876;2023-08-06T03:01:17;7.97;;;7.43;;
19675;SDS011;39539;52.202;9.876;2023-08-06T03:03:43;7.43;;;6.82;;
19675;SDS011;39539;52.202;9.876;2023-08-06T03:06:08;8.48;;;7.68;;
19675;SDS011;39539;52.202;9.876;2023-08-06T03:08:33;7.45;;;6.85;;
19675;SDS011;39539;52.202;9.876;2023-08-06T03:10:59;7.82;;;7.22;;
19675;SDS011;39539;52.202;9.876;2023-08-06T03:13:24;7.55;;;6.95;;
19675;SDS011;39539;52.202;9.876;2023-08-06T03:15:53;7.05;;;6.55;;
19675;SDS011;39539;52.202;9.876;2023-08-06T03:18:20;7.22;;;6.72;;
19675;SDS011;39539;52.202;9.876;2023-08-06T03:20:46;9.05;;;6.30;;
19675;SDS011;39539;52.202;9.876;2023-08-06T03:23:11;7.30;;;6.55;;
19675;SDS011;39539;52.202;9.876;2023-08-06T03:25:37;7.47;;;6.45;;
19675;SDS011;39539;52.202;9.876;2023-08-06T03:28:02;8.18;;;6.72;;
19675;SDS011;39539;52.202;9.876;2023-08-06T03:30:27;7.78;;;7.22;;
19675;SDS011;39539;52.202;9.876;2023-08-06T03:32:53;7.63;;;6.93;;
19675;SDS011;39539;52.202;9.876;2023-08-06T03:35:18;7.43;;;6.80;;
19675;SDS011;39539;52.202;9.876;2023-08-06T03:37:43;7.97;;;7.28;;
19675;SDS011;39539;52.202;9.876;2023-08-06T03:40:09;8.38;;;7.78;;
19675;SDS011;39539;52.202;9.876;2023-08-06T03:42:35;8.98;;;7.15;;
19675;SDS011;39539;52.202;9.876;2023-08-06T03:45:00;12.60;;;7.95;;
19675;SDS011;39539;52.202;9.876;2023-08-06T03:47:25;10.05;;;7.70;;
19675;SDS011;39539;52.202;9.876;2023-08-06T03:49:51;8.52;;;7.65;;
19675;SDS011;39539;52.202;9.876;2023-08-06T03:52:16;8.68;;;7.78;;
19675;SDS011;39539;52.202;9.876;2023-08-06T03:54:41;9.02;;;7.68;;
19675;SDS011;39539;52.202;9.876;2023-08-06T03:57:08;9.52;;;7.65;;
19675;SDS011;39539;52.202;9.876;2023-08-06T03:59:33;8.65;;;7.95;;
19675;SDS011;39539;52.202;9.876;2023-08-06T04:01:59;8.35;;;7.53;;
19675;SDS011;39539;52.202;9.876;2023-08-06T04:04:24;8.32;;;7.72;;
19675;SDS011;39539;52.202;9.876;2023-08-06T04:06:50;7.18;;;6.68;;
19675;SDS011;39539;52.202;9.876;2023-08-06T04:09:15;8.63;;;7.93;;
19675;SDS011;39539;52.202;9.876;2023-08-06T04:11:40;7.30;;;6.75;;
19675;SDS011;39539;52.202;9.876;2023-08-06T04:14:05;8.10;;;7.45;;
19675;SDS011;39539;52.202;9.876;2023-08-06T04:16:31;7.40;;;6.80;;
19675;SDS011;39539;52.202;9.876;2023-08-06T04:18:56;6.68;;;6.18;;
19675;SDS011;39539;52.202;9.876;2023-08-06T04:21:23;6.82;;;6.32;;
19675;SDS011;39539;52.202;9.876;2023-08-06T04:23:48;7.07;;;6.53;;
19675;SDS011;39539;52.202;9.876;2023-08-06T04:26:13;5.03;;;4.63;;
19675;SDS011;39539;52.202;9.876;2023-08-06T04:28:39;5.75;;;5.25;;
19675;SDS011;39539;52.202;9.876;2023-08-06T04:31:04;6.13;;;5.72;;
19675;SDS011;39539;52.202;9.876;2023-08-06T04:33:29;7.68;;;7.07;;
19675;SDS011;39539;52.202;9.876;2023-08-06T04:35:55;8.93;;;8.10;;
19675;SDS011;39539;52.202;9.876;2023-08-06T04:38:21;8.80;;;7.63;;
19675;SDS011;39539;52.202;9.876;2023-08-06T04:40:48;8.13;;;7.50;;
19675;SDS011;39539;52.202;9.876;2023-08-06T04:43:13;8.50;;;7.90;;
19675;SDS011;39539;52.202;9.876;2023-08-06T04:45:38;8.65;;;7.97;;
19675;SDS011;39539;52.202;9.876;2023-08-06T04:48:10;8.50;;;7.90;;
19675;SDS011;39539;52.202;9.876;2023-08-06T04:50:36;8.93;;;8.23;;
19675;SDS011;39539;52.202;9.876;2023-08-06T04:53:01;8.80;;;8.10;;
19675;SDS011;39539;52.202;9.876;2023-08-06T04:55:26;8.32;;;7.65;;
19675;SDS011;39539;52.202;9.876;2023-08-06T04:57:52;9.13;;;8.27;;
19675;SDS011;39539;52.202;9.876;2023-08-06T05:00:17;9.27;;;8.38;;
19675;SDS011;39539;52.202;9.876;2023-08-06T05:02:42;7.55;;;7.05;;
19675;SDS011;39539;52.202;9.876;2023-08-06T05:05:08;7.85;;;7.32;;
19675;SDS011;39539;52.202;9.876;2023-08-06T05:07:33;7.80;;;7.13;;
19675;SDS011;39539;52.202;9.876;2023-08-06T05:09:58;7.00;;;6.50;;
19675;SDS011;39539;52.202;9.876;2023-08-06T05:12:24;7.25;;;6.68;;
19675;SDS011;39539;52.202;9.876;2023-08-06T05:14:49;6.72;;;6.22;;
19675;SDS011;39539;52.202;9.876;2023-08-06T05:17:14;6.38;;;5.88;;
19675;SDS011;39539;52.202;9.876;2023-08-06T05:19:40;7.05;;;6.45;;
19675;SDS011;39539;52.202;9.876;2023-08-06T05:22:05;6.97;;;6.53;;
19675;SDS011;39539;52.202;9.876;2023-08-06T05:24:30;6.90;;;6.35;;
19675;SDS011;39539;52.202;9.876;2023-08-06T05:26:55;7.55;;;6.95;;
19675;SDS011;39539;52.202;9.876;2023-08-06T05:29:21;8.18;;;7.50;;
19675;SDS011;39539;52.202;9.876;2023-08-06T05:31:46;7.60;;;7.03;;
19675;SDS011;39539;52.202;9.876;2023-08-06T05:34:11;8.90;;;8.20;;
19675;SDS011;39539;52.202;9.876;2023-08-06T05:36:38;8.43;;;7.72;;
19675;SDS011;39539;52.202;9.876;2023-08-06T05:39:03;9.80;;;9.02;;
19675;SDS011;39539;52.202;9.876;2023-08-06T05:41:28;9.48;;;8.77;;
19675;SDS011;39539;52.202;9.876;2023-08-06T05:43:54;7.32;;;6.85;;
19675;SDS011;39539;52.202;9.876;2023-08-06T05:46:19;7.10;;;6.40;;
19675;SDS011;39539;52.202;9.876;2023-08-06T05:48:44;6.38;;;5.88;;
19675;SDS011;39539;52.202;9.876;2023-08-06T05:51:09;6.72;;;6.05;;
19675;SDS011;39539;52.202;9.876;2023-08-06T05:53:37;6.50;;;6.05;;
19675;SDS011;39539;52.202;9.876;2023-08-06T05:56:03;4.78;;;4.47;;
19675;SDS011;39539;52.202;9.876;2023-08-06T05:58:28;5.78;;;5.30;;
19675;SDS011;39539;52.202;9.876;2023-08-06T06:00:55;5.47;;;5.07;;
19675;SDS011;39539;52.202;9.876;2023-08-06T06:03:21;4.03;;;3.83;;
19675;SDS011;39539;52.202;9.876;2023-08-06T06:05:46;5.05;;;4.05;;
19675;SDS011;39539;52.202;9.876;2023-08-06T06:08:11;3.97;;;3.58;;
19675;SDS011;39539;52.202;9.876;2023-08-06T06:10:36;3.60;;;3.30;;
19675;SDS011;39539;52.202;9.876;2023-08-06T06:13:02;3.58;;;2.70;;
19675;SDS011;39539;52.202;9.876;2023-08-06T06:15:27;3.33;;;3.05;;
19675;SDS011;39539;52.202;9.876;2023-08-06T06:17:52;3.22;;;3.03;;
19675;SDS011;39539;52.202;9.876;2023-08-06T06:20:18;2.67;;;2.47;;
19675;SDS011;39539;52.202;9.876;2023-08-06T06:22:43;2.50;;;2.30;;
19675;SDS011;39539;52.202;9.876;2023-08-06T06:25:08;1.77;;;1.60;;
19675;SDS011;39539;52.202;9.876;2023-08-06T06:27:35;1.92;;;1.75;;
19675;SDS011;39539;52.202;9.876;2023-08-06T06:30:00;2.67;;;1.30;;
19675;SDS011;39539;52.202;9.876;2023-08-06T06:32:26;1.17;;;1.17;;
19675;SDS011;39539;52.202;9.876;2023-08-06T06:34:51;1.40;;;1.30;;
19675;SDS011;39539;52.202;9.876;2023-08-06T06:37:16;1.35;;;1.25;;
19675;SDS011;39539;52.202;9.876;2023-08-06T06:39:42;1.95;;;1.50;;
19675;SDS011;39539;52.202;9.876;2023-08-06T06:42:08;1.20;;;1.10;;
19675;SDS011;39539;52.202;9.876;2023-08-06T06:44:34;1.50;;;1.20;;
19675;SDS011;39539;52.202;9.876;2023-08-06T06:46:59;1.20;;;1.10;;
19675;SDS011;39539;52.202;9.876;2023-08-06T06:49:24;1.83;;;1.10;;
19675;SDS011;39539;52.202;9.876;2023-08-06T06:51:50;1.90;;;1.80;;
19675;SDS011;39539;52.202;9.876;2023-08-06T06:54:16;2.00;;;1.90;;
19675;SDS011;39539;52.202;9.876;2023-08-06T06:56:42;2.13;;;1.90;;
19675;SDS011;39539;52.202;9.876;2023-08-06T06:59:07;4.53;;;1.60;;
19675;SDS011;39539;52.202;9.876;2023-08-06T07:01:32;2.35;;;1.50;;
19675;SDS011;39539;52.202;9.876;2023-08-06T07:03:59;1.85;;;1.38;;
19675;SDS011;39539;52.202;9.876;2023-08-06T07:06:29;1.98;;;1.80;;
19675;SDS011;39539;52.202;9.876;2023-08-06T07:08:55;1.75;;;1.40;;
19675;SDS011;39539;52.202;9.876;2023-08-06T07:11:20;4.53;;;1.50;;
19675;SDS011;39539;52.202;9.876;2023-08-06T07:13:45;2.17;;;1.30;;
19675;SDS011;39539;52.202;9.876;2023-08-06T07:16:10;1.33;;;1.23;;
19675;SDS011;39539;52.202;9.876;2023-08-06T07:18:36;1.70;;;1.60;;
19675;SDS011;39539;52.202;9.876;2023-08-06T07:21:01;1.40;;;1.30;;
19675;SDS011;39539;52.202;9.876;2023-08-06T07:23:27;1.52;;;1.42;;
19675;SDS011;39539;52.202;9.876;2023-08-06T07:25:52;1.98;;;1.40;;
19675;SDS011;39539;52.202;9.876;2023-08-06T07:28:17;1.60;;;1.20;;
19675;SDS011;39539;52.202;9.876;2023-08-06T07:30:44;1.90;;;1.13;;
19675;SDS011;39539;52.202;9.876;2023-08-06T07:33:10;1.55;;;1.30;;
19675;SDS011;39539;52.202;9.876;2023-08-06T07:35:36;2.53;;;1.40;;
19675;SDS011;39539;52.202;9.876;2023-08-06T07:38:02;1.92;;;1.63;;
19675;SDS011;39539;52.202;9.876;2023-08-06T07:40:27;2.00;;;1.80;;
19675;SDS011;39539;52.202;9.876;2023-08-06T07:42:53;1.80;;;1.70;;
19675;SDS011;39539;52.202;9.876;2023-08-06T07:45:19;1.88;;;1.70;;
19675;SDS011;39539;52.202;9.876;2023-08-06T07:47:44;1.70;;;1.60;;
19675;SDS011;39539;52.202;9.876;2023-08-06T07:50:10;2.40;;;1.70;;
19675;SDS011;39539;52.202;9.876;2023-08-06T07:52:35;2.05;;;1.90;;
19675;SDS011;39539;52.202;9.876;2023-08-06T07:55:00;2.00;;;1.90;;
19675;SDS011;39539;52.202;9.876;2023-08-06T07:57:29;2.20;;;1.65;;
19675;SDS011;39539;52.202;9.876;2023-08-06T07:59:55;2.45;;;1.50;;
19675;SDS011;39539;52.202;9.876;2023-08-06T08:02:21;1.90;;;1.50;;
19675;SDS011;39539;52.202;9.876;2023-08-06T08:04:46;1.60;;;1.50;;
19675;SDS011;39539;52.202;9.876;2023-08-06T08:07:12;1.95;;;1.70;;
19675;SDS011;39539;52.202;9.876;2023-08-06T08:09:38;1.83;;;1.45;;
19675;SDS011;39539;52.202;9.876;2023-08-06T08:12:03;1.70;;;1.60;;
19675;SDS011;39539;52.202;9.876;2023-08-06T08:14:29;1.60;;;1.50;;
19675;SDS011;39539;52.202;9.876;2023-08-06T08:16:58;2.17;;;1.83;;
19675;SDS011;39539;52.202;9.876;2023-08-06T08:19:23;2.17;;;1.55;;
19675;SDS011;39539;52.202;9.876;2023-08-06T08:21:49;1.70;;;1.35;;
19675;SDS011;39539;52.202;9.876;2023-08-06T08:24:14;1.90;;;1.45;;
19675;SDS011;39539;52.202;9.876;2023-08-06T08:26:39;1.60;;;1.50;;
19675;SDS011;39539;52.202;9.876;2023-08-06T08:29:05;1.70;;;1.25;;
19675;SDS011;39539;52.202;9.876;2023-08-06T08:31:30;1.98;;;1.40;;
19675;SDS011;39539;52.202;9.876;2023-08-06T08:33:56;1.58;;;1.48;;
19675;SDS011;39539;52.202;9.876;2023-08-06T08:36:23;2.38;;;1.52;;
19675;SDS011;39539;52.202;9.876;2023-08-06T08:38:48;2.00;;;1.75;;
19675;SDS011;39539;52.202;9.876;2023-08-06T08:41:15;1.73;;;1.63;;
19675;SDS011;39539;52.202;9.876;2023-08-06T08:43:40;1.70;;;1.60;;
19675;SDS011;39539;52.202;9.876;2023-08-06T08:46:07;1.63;;;1.52;;
19675;SDS011;39539;52.202;9.876;2023-08-06T08:48:33;1.92;;;1.83;;
19675;SDS011;39539;52.202;9.876;2023-08-06T08:50:59;1.38;;;1.27;;
19675;SDS011;39539;52.202;9.876;2023-08-06T08:53:25;1.63;;;1.52;;
19675;SDS011;39539;52.202;9.876;2023-08-06T08:55:52;1.73;;;1.63;;
19675;SDS011;39539;52.202;9.876;2023-08-06T08:58:18;2.72;;;1.83;;
19675;SDS011;39539;52.202;9.876;2023-08-06T09:00:43;1.63;;;1.50;;
19675;SDS011;39539;52.202;9.876;2023-08-06T09:03:10;1.85;;;1.70;;
19675;SDS011;39539;52.202;9.876;2023-08-06T09:05:36;1.48;;;1.38;;
19675;SDS011;39539;52.202;9.876;2023-08-06T09:08:06;3.42;;;1.52;;
19675;SDS011;39539;52.202;9.876;2023-08-06T09:10:36;1.58;;;1.45;;
19675;SDS011;39539;52.202;9.876;2023-08-06T09:13:02;2.25;;;1.30;;
19675;SDS011;39539;52.202;9.876;2023-08-06T09:15:28;1.45;;;1.30;;
19675;SDS011;39539;52.202;9.876;2023-08-06T09:17:55;1.73;;;1.40;;
19675;SDS011;39539;52.202;9.876;2023-08-06T09:20:20;2.08;;;1.33;;
19675;SDS011;39539;52.202;9.876;2023-08-06T09:22:46;2.33;;;1.27;;
19675;SDS011;39539;52.202;9.876;2023-08-06T09:25:21;1.50;;;1.40;;
19675;SDS011;39539;52.202;9.876;2023-08-06T09:27:49;1.58;;;1.48;;
19675;SDS011;39539;52.202;9.876;2023-08-06T09:30:32;2.10;;;1.13;;
19675;SDS011;39539;52.202;9.876;2023-08-06T09:32:59;1.50;;;1.30;;
19675;SDS011;39539;52.202;9.876;2023-08-06T09:35:27;1.55;;;1.45;;
19675;SDS011;39539;52.202;9.876;2023-08-06T09:37:54;1.52;;;1.10;;
19675;SDS011;39539;52.202;9.876;2023-08-06T09:42:51;2.05;;;1.30;;
19675;SDS011;39539;52.202;9.876;2023-08-06T09:45:17;1.52;;;1.23;;
19675;SDS011;39539;52.202;9.876;2023-08-06T09:47:42;2.58;;;1.20;;
19675;SDS011;39539;52.202;9.876;2023-08-06T09:50:20;1.83;;;1.50;;
19675;SDS011;39539;52.202;9.876;2023-08-06T09:52:48;1.50;;;1.20;;
19675;SDS011;39539;52.202;9.876;2023-08-06T09:55:16;1.48;;;1.20;;
19675;SDS011;39539;52.202;9.876;2023-08-06T09:57:43;1.70;;;1.60;;
19675;SDS011;39539;52.202;9.876;2023-08-06T10:00:09;1.58;;;1.30;;
19675;SDS011;39539;52.202;9.876;2023-08-06T10:02:39;1.48;;;1.38;;
19675;SDS011;39539;52.202;9.876;2023-08-06T10:05:06;1.67;;;1.50;;
19675;SDS011;39539;52.202;9.876;2023-08-06T10:07:32;1.95;;;1.55;;
19675;SDS011;39539;52.202;9.876;2023-08-06T10:09:59;1.88;;;1.77;;
19675;SDS011;39539;52.202;9.876;2023-08-06T10:12:25;1.75;;;1.40;;
19675;SDS011;39539;52.202;9.876;2023-08-06T10:14:54;1.75;;;1.65;;
19675;SDS011;39539;52.202;9.876;2023-08-06T10:17:22;2.15;;;1.25;;
19675;SDS011;39539;52.202;9.876;2023-08-06T10:19:48;1.65;;;1.27;;
19675;SDS011;39539;52.202;9.876;2023-08-06T10:22:16;2.05;;;1.48;;
19675;SDS011;39539;52.202;9.876;2023-08-06T10:24:52;1.55;;;1.45;;
19675;SDS011;39539;52.202;9.876;2023-08-06T10:28:02;1.50;;;1.40;;
19675;SDS011;39539;52.202;9.876;2023-08-06T10:30:27;1.50;;;1.40;;
19675;SDS011;39539;52.202;9.876;2023-08-06T10:32:53;1.40;;;1.30;;
19675;SDS011;39539;52.202;9.876;2023-08-06T10:35:31;1.40;;;1.27;;
19675;SDS011;39539;52.202;9.876;2023-08-06T10:40:28;1.45;;;1.20;;
19675;SDS011;39539;52.202;9.876;2023-08-06T10:43:06;1.48;;;1.20;;
19675;SDS011;39539;52.202;9.876;2023-08-06T10:45:34;1.85;;;1.20;;
19675;SDS011;39539;52.202;9.876;2023-08-06T10:48:00;1.60;;;1.50;;
19675;SDS011;39539;52.202;9.876;2023-08-06T10:50:26;1.35;;;1.25;;
19675;SDS011;39539;52.202;9.876;2023-08-06T10:52:53;1.50;;;1.40;;
19675;SDS011;39539;52.202;9.876;2023-08-06T10:55:29;1.55;;;1.42;;
19675;SDS011;39539;52.202;9.876;2023-08-06T10:57:55;1.65;;;1.55;;
19675;SDS011;39539;52.202;9.876;2023-08-06T11:00:22;1.73;;;1.63;;
19675;SDS011;39539;52.202;9.876;2023-08-06T11:02:49;1.48;;;1.38;;
19675;SDS011;39539;52.202;9.876;2023-08-06T11:05:15;1.98;;;1.23;;
19675;SDS011;39539;52.202;9.876;2023-08-06T11:07:43;2.70;;;1.60;;
19675;SDS011;39539;52.202;9.876;2023-08-06T11:10:09;1.23;;;1.13;;
19675;SDS011;39539;52.202;9.876;2023-08-06T11:12:37;2.30;;;1.60;;
19675;SDS011;39539;52.202;9.876;2023-08-06T11:15:04;3.10;;;1.38;;
19675;SDS011;39539;52.202;9.876;2023-08-06T11:17:30;1.50;;;1.40;;
19675;SDS011;39539;52.202;9.876;2023-08-06T11:20:00;1.17;;;1.17;;
19675;SDS011;39539;52.202;9.876;2023-08-06T11:22:26;2.00;;;1.33;;
19675;SDS011;39539;52.202;9.876;2023-08-06T11:24:52;1.40;;;1.20;;
19675;SDS011;39539;52.202;9.876;2023-08-06T11:27:18;1.60;;;1.50;;
19675;SDS011;39539;52.202;9.876;2023-08-06T11:29:45;1.60;;;1.50;;
19675;SDS011;39539;52.202;9.876;2023-08-06T11:32:11;1.40;;;1.30;;
19675;SDS011;39539;52.202;9.876;2023-08-06T11:34:40;2.45;;;1.52;;
19675;SDS011;39539;52.202;9.876;2023-08-06T11:37:08;1.20;;;1.10;;
19675;SDS011;39539;52.202;9.876;2023-08-06T11:39:37;1.98;;;1.40;;
19675;SDS011;39539;52.202;9.876;2023-08-06T11:42:08;1.38;;;1.27;;
19675;SDS011;39539;52.202;9.876;2023-08-06T11:44:36;1.30;;;1.27;;
19675;SDS011;39539;52.202;9.876;2023-08-06T11:47:02;1.70;;;1.30;;
19675;SDS011;39539;52.202;9.876;2023-08-06T11:49:40;1.20;;;1.10;;
19675;SDS011;39539;52.202;9.876;2023-08-06T11:52:25;1.48;;;1.38;;
19675;SDS011;39539;52.202;9.876;2023-08-06T11:55:01;1.33;;;1.15;;
19675;SDS011;39539;52.202;9.876;2023-08-06T11:57:38;1.52;;;1.40;;
19675;SDS011;39539;52.202;9.876;2023-08-06T12:00:10;1.35;;;1.25;;
19675;SDS011;39539;52.202;9.876;2023-08-06T12:02:40;1.38;;;1.33;;
19675;SDS011;39539;52.202;9.876;2023-08-06T12:05:17;1.65;;;1.50;;
19675;SDS011;39539;52.202;9.876;2023-08-06T12:07:50;1.33;;;1.20;;
19675;SDS011;39539;52.202;9.876;2023-08-06T12:10:26;2.05;;;1.25;;
19675;SDS011;39539;52.202;9.876;2023-08-06T12:12:53;1.83;;;1.35;;
19675;SDS011;39539;52.202;9.876;2023-08-06T12:15:19;1.55;;;1.45;;
19675;SDS011;39539;52.202;9.876;2023-08-06T12:17:44;1.30;;;1.20;;
19675;SDS011;39539;52.202;9.876;2023-08-06T12:20:10;1.58;;;1.48;;
19675;SDS011;39539;52.202;9.876;2023-08-06T12:22:36;1.48;;;1.23;;
19675;SDS011;39539;52.202;9.876;2023-08-06T12:25:07;1.50;;;1.40;;
19675;SDS011;39539;52.202;9.876;2023-08-06T12:27:35;1.40;;;1.30;;
19675;SDS011;39539;52.202;9.876;2023-08-06T12:30:01;1.23;;;1.23;;
19675;SDS011;39539;52.202;9.876;2023-08-06T12:32:28;1.40;;;1.30;;
19675;SDS011;39539;52.202;9.876;2023-08-06T12:34:54;2.45;;;1.55;;
19675;SDS011;39539;52.202;9.876;2023-08-06T12:37:20;1.80;;;1.30;;
19675;SDS011;39539;52.202;9.876;2023-08-06T12:39:46;1.83;;;1.42;;
19675;SDS011;39539;52.202;9.876;2023-08-06T12:42:11;1.60;;;1.50;;
19675;SDS011;39539;52.202;9.876;2023-08-06T12:44:37;1.60;;;1.50;;
19675;SDS011;39539;52.202;9.876;2023-08-06T12:47:02;1.95;;;1.63;;
19675;SDS011;39539;52.202;9.876;2023-08-06T12:49:28;3.95;;;1.48;;
19675;SDS011;39539;52.202;9.876;2023-08-06T12:51:56;1.58;;;1.48;;
19675;SDS011;39539;52.202;9.876;2023-08-06T12:54:24;1.60;;;1.50;;
19675;SDS011;39539;52.202;9.876;2023-08-06T12:56:52;1.50;;;1.40;;
19675;SDS011;39539;52.202;9.876;2023-08-06T12:59:18;1.50;;;1.40;;
19675;SDS011;39539;52.202;9.876;2023-08-06T13:01:44;1.88;;;1.40;;
19675;SDS011;39539;52.202;9.876;2023-08-06T13:04:09;1.63;;;1.52;;
19675;SDS011;39539;52.202;9.876;2023-08-06T13:06:36;1.58;;;1.48;;
19675;SDS011;39539;52.202;9.876;2023-08-06T13:09:05;2.20;;;2.00;;
19675;SDS011;39539;52.202;9.876;2023-08-06T13:11:33;1.88;;;1.75;;
19675;SDS011;39539;52.202;9.876;2023-08-06T13:14:12;1.80;;;1.70;;
19675;SDS011;39539;52.202;9.876;2023-08-06T13:16:40;1.85;;;1.75;;
19675;SDS011;39539;52.202;9.876;2023-08-06T13:19:07;1.92;;;1.80;;
19675;SDS011;39539;52.202;9.876;2023-08-06T13:21:34;1.88;;;1.77;;
19675;SDS011;39539;52.202;9.876;2023-08-06T13:24:20;2.45;;;2.30;;
19675;SDS011;39539;52.202;9.876;2023-08-06T13:26:46;2.50;;;2.30;;
19675;SDS011;39539;52.202;9.876;2023-08-06T13:29:11;2.40;;;2.10;;
19675;SDS011;39539;52.202;9.876;2023-08-06T13:31:38;2.40;;;2.30;;
19675;SDS011;39539;52.202;9.876;2023-08-06T13:34:03;2.80;;;2.20;;
19675;SDS011;39539;52.202;9.876;2023-08-06T13:36:29;2.03;;;1.83;;
19675;SDS011;39539;52.202;9.876;2023-08-06T13:38:55;2.28;;;2.08;;
19675;SDS011;39539;52.202;9.876;2023-08-06T13:41:21;2.42;;;2.13;;
19675;SDS011;39539;52.202;9.876;2023-08-06T13:43:46;2.40;;;2.20;;
19675;SDS011;39539;52.202;9.876;2023-08-06T13:46:13;2.40;;;2.20;;
19675;SDS011;39539;52.202;9.876;2023-08-06T13:48:43;2.53;;;2.33;;
19675;SDS011;39539;52.202;9.876;2023-08-06T13:51:11;2.45;;;2.25;;
19675;SDS011;39539;52.202;9.876;2023-08-06T13:53:38;2.22;;;2.10;;
19675;SDS011;39539;52.202;9.876;2023-08-06T13:56:08;2.30;;;2.20;;
19675;SDS011;39539;52.202;9.876;2023-08-06T13:58:35;2.83;;;2.20;;
19675;SDS011;39539;52.202;9.876;2023-08-06T14:01:01;2.15;;;2.05;;
19675;SDS011;39539;52.202;9.876;2023-08-06T14:03:26;2.13;;;1.92;;
19675;SDS011;39539;52.202;9.876;2023-08-06T14:05:51;2.23;;;2.13;;
19675;SDS011;39539;52.202;9.876;2023-08-06T14:08:18;2.28;;;2.17;;
19675;SDS011;39539;52.202;9.876;2023-08-06T14:10:44;2.35;;;2.17;;
19675;SDS011;39539;52.202;9.876;2023-08-06T14:13:09;2.20;;;2.10;;
19675;SDS011;39539;52.202;9.876;2023-08-06T14:15:35;2.08;;;1.98;;
19675;SDS011;39539;52.202;9.876;2023-08-06T14:18:01;2.17;;;2.00;;
19675;SDS011;39539;52.202;9.876;2023-08-06T14:20:27;1.98;;;1.88;;
19675;SDS011;39539;52.202;9.876;2023-08-06T14:22:53;3.03;;;2.30;;
19675;SDS011;39539;52.202;9.876;2023-08-06T14:25:18;2.20;;;2.00;;
19675;SDS011;39539;52.202;9.876;2023-08-06T14:27:44;2.30;;;2.10;;
19675;SDS011;39539;52.202;9.876;2023-08-06T14:30:09;2.10;;;2.00;;
19675;SDS011;39539;52.202;9.876;2023-08-06T14:32:35;2.53;;;2.33;;
19675;SDS011;39539;52.202;9.876;2023-08-06T14:35:01;2.10;;;1.98;;
19675;SDS011;39539;52.202;9.876;2023-08-06T14:37:27;2.15;;;2.05;;
19675;SDS011;39539;52.202;9.876;2023-08-06T14:39:52;2.22;;;2.13;;
19675;SDS011;39539;52.202;9.876;2023-08-06T14:42:20;2.10;;;2.00;;
19675;SDS011;39539;52.202;9.876;2023-08-06T14:44:45;2.60;;;2.40;;
19675;SDS011;39539;52.202;9.876;2023-08-06T14:47:11;2.42;;;2.22;;
19675;SDS011;39539;52.202;9.876;2023-08-06T14:49:37;2.95;;;2.50;;
19675;SDS011;39539;52.202;9.876;2023-08-06T14:52:03;2.22;;;2.13;;
19675;SDS011;39539;52.202;9.876;2023-08-06T14:54:29;2.45;;;2.28;;
19675;SDS011;39539;52.202;9.876;2023-08-06T14:56:54;2.10;;;2.00;;